Terminal Aerodrome Forecast
Issued by NWS

Home | Current Version | Previous Version | Graphics & Text | Print | Product List | Glossary On
Versions: 1 2 3 4 5 6 7 8 9 10 11 12 13 14
000
FTUS43 KTOP 031725
TAFFOE
TAF
KFOE 031725Z 0318/0418 VRB03KT P6SM OVC050
     FM032200 11006KT P6SM VCSH OVC040
     FM040000 09004KT 6SM -SHRA BR OVC040
      TEMPO 0404/0407 2SM -SHRA BR OVC013
     FM040700 17004KT 1 1/2SM -SHRA BR OVC007
     FM041300 21004KT 6SM BR OVC006
     FM041700 28007KT P6SM SCT050=

USA.gov is the U.S. government's official web portal to all federal, state and local government web resources and services.